Time;durP1;ratioP1;P1;durP2;ratioP2;P2;SDS_P1;SDS_P2;PMS_P1;PMS_P2;Temp;Humidity;BMP_temperature;BMP_pressure;BME280_temperature;BME280_humidity;BME280_pressure;Samples;Min_cycle;Max_cycle;Signal;HPM_P1;HPM_P2
2023/03/06 00:02:15;;;;;;;15.63;9.37;;;;;;;1.29;72.10;94755.59;5011700;28;20187;-79
2023/03/06 00:04:40;;;;;;;13.40;8.77;;;;;;;1.33;72.08;94751.91;5004815;28;20665;-79
2023/03/06 00:07:05;;;;;;;16.23;10.13;;;;;;;1.28;71.99;94756.53;5016596;28;20274;-79
2023/03/06 00:09:31;;;;;;;12.93;8.77;;;;;;;1.16;71.79;94749.75;5019641;28;20193;-79
2023/03/06 00:11:56;;;;;;;13.53;9.13;;;;;;;1.30;71.78;94746.97;5006986;28;20612;-80
2023/03/06 00:14:21;;;;;;;13.37;8.73;;;;;;;1.26;72.05;94744.78;5019254;28;20187;-81
2023/03/06 00:16:47;;;;;;;13.30;9.10;;;;;;;1.25;72.43;94741.41;4998925;28;20626;-80
2023/03/06 00:19:12;;;;;;;13.97;9.20;;;;;;;1.18;72.60;94741.94;5008361;28;20182;-81
2023/03/06 00:21:40;;;;;;;15.53;9.57;;;;;;;1.11;72.99;94744.13;5010542;28;20194;-81
2023/03/06 00:24:06;;;;;;;14.63;9.47;;;;;;;1.16;72.84;94743.81;5029973;28;20201;-80
2023/03/06 00:26:32;;;;;;;15.87;9.50;;;;;;;1.18;72.69;94732.53;5011571;28;20202;-80
2023/03/06 00:28:58;;;;;;;14.93;9.90;;;;;;;1.11;73.16;94732.16;5024869;28;20233;-80
2023/03/06 00:31:23;;;;;;;21.20;10.20;;;;;;;0.95;73.54;94723.13;5019440;28;20199;-80
2023/03/06 00:33:48;;;;;;;16.57;9.70;;;;;;;1.05;73.16;94727.47;5016267;28;20187;-79
2023/03/06 00:36:14;;;;;;;15.43;9.37;;;;;;;0.86;73.54;94722.06;5020272;28;20223;-80
2023/03/06 00:38:39;;;;;;;13.37;8.87;;;;;;;0.98;73.17;94717.81;5023333;28;20199;-80
2023/03/06 00:41:11;;;;;;;14.30;9.37;;;;;;;0.90;73.36;94712.44;5029007;28;20191;-79
2023/03/06 00:43:37;;;;;;;17.30;9.13;;;;;;;0.92;73.07;94721.63;5029866;28;20206;-80
2023/03/06 00:46:04;;;;;;;17.20;9.00;;;;;;;0.91;73.43;94712.31;5023619;28;20209;-81
2023/03/06 00:48:30;;;;;;;11.97;8.03;;;;;;;0.91;73.35;94722.56;5032595;28;20194;-81
2023/03/06 00:50:55;;;;;;;14.83;8.63;;;;;;;0.82;73.77;94708.69;5032147;28;20617;-81
2023/03/06 00:53:21;;;;;;;13.37;8.73;;;;;;;0.85;73.65;94710.19;5026991;28;20278;-79
2023/03/06 00:55:46;;;;;;;14.60;8.80;;;;;;;0.75;73.95;94711.78;5023001;28;20210;-79
2023/03/06 00:58:11;;;;;;;14.70;9.60;;;;;;;0.78;74.53;94702.16;5025145;28;20187;-79
2023/03/06 01:00:37;;;;;;;14.03;9.07;;;;;;;0.84;74.00;94696.59;5017349;28;20678;-80
2023/03/06 01:03:02;;;;;;;15.50;9.07;;;;;;;0.81;74.79;94703.69;5037584;28;20194;-81
2023/03/06 01:05:27;;;;;;;13.30;8.63;;;;;;;0.80;74.55;94708.00;5008501;28;20745;-80
2023/03/06 01:07:53;;;;;;;12.90;8.77;;;;;;;0.86;74.34;94696.50;5031875;28;20209;-80
2023/03/06 01:10:18;;;;;;;14.60;9.13;;;;;;;0.82;74.34;94695.91;5009181;28;20590;-80
2023/03/06 01:12:44;;;;;;;15.13;9.47;;;;;;;0.76;74.97;94692.97;5020944;28;20191;-81
2023/03/06 01:15:12;;;;;;;14.67;9.37;;;;;;;0.78;73.99;94691.91;5015031;28;20207;-81
2023/03/06 01:17:37;;;;;;;15.27;9.73;;;;;;;0.85;73.64;94690.56;5016531;28;20296;-80
2023/03/06 01:20:03;;;;;;;15.60;8.47;;;;;;;0.89;73.29;94685.25;5022922;28;20266;-81
2023/03/06 01:22:29;;;;;;;17.37;9.07;;;;;;;0.87;73.70;94685.34;5010560;28;20240;-81
2023/03/06 01:24:54;;;;;;;12.80;8.43;;;;;;;0.90;73.55;94681.78;5014899;28;21134;-80
2023/03/06 01:27:20;;;;;;;13.10;8.20;;;;;;;0.86;73.67;94673.47;5009438;28;20682;-81
2023/03/06 01:29:45;;;;;;;16.47;9.00;;;;;;;0.88;73.69;94674.19;5022331;28;20178;-80
2023/03/06 01:32:10;;;;;;;12.30;8.73;;;;;;;0.94;73.57;94667.81;5031711;28;20284;-81
2023/03/06 01:34:35;;;;;;;14.67;9.03;;;;;;;0.97;73.61;94668.44;5019664;28;20187;-81
2023/03/06 01:37:01;;;;;;;13.47;8.67;;;;;;;0.97;73.68;94673.56;5021677;28;20210;-80
2023/03/06 01:39:27;;;;;;;15.03;8.83;;;;;;;0.95;73.98;94670.25;5003748;28;20222;-81
2023/03/06 01:41:52;;;;;;;13.80;9.17;;;;;;;0.91;73.92;94663.75;4999055;28;20190;-80
2023/03/06 01:44:18;;;;;;;12.00;8.03;;;;;;;0.95;73.38;94654.13;5009907;28;20194;-81
2023/03/06 01:46:44;;;;;;;13.60;8.30;;;;;;;0.96;73.08;94654.00;5003988;28;20245;-81
2023/03/06 01:49:17;;;;;;;14.73;8.70;;;;;;;0.99;73.76;94643.56;5006566;28;20285;-80
2023/03/06 01:51:47;;;;;;;13.97;9.07;;;;;;;0.96;73.47;94648.06;5028888;28;20191;-81
2023/03/06 01:54:40;;;;;;;14.40;8.70;;;;;;;1.00;73.30;94644.38;5025040;28;20548;-81
2023/03/06 01:57:13;;;;;;;13.07;8.33;;;;;;;0.98;73.29;94641.94;5016067;28;20223;-80
2023/03/06 01:59:39;;;;;;;17.00;9.30;;;;;;;0.97;72.91;94645.44;5011503;28;20229;-81
2023/03/06 02:02:06;;;;;;;13.50;8.73;;;;;;;0.99;73.31;94640.19;5032323;28;20197;-81
2023/03/06 02:04:32;;;;;;;15.23;8.57;;;;;;;0.99;73.61;94637.63;5031266;28;20191;-81
2023/03/06 02:06:59;;;;;;;13.63;8.53;;;;;;;1.02;73.19;94630.56;5028053;28;20179;-81
2023/03/06 02:09:28;;;;;;;15.43;9.03;;;;;;;1.01;72.71;94628.94;5025581;28;20751;-80
2023/03/06 02:11:53;;;;;;;12.77;8.50;;;;;;;1.01;73.16;94620.44;5021576;28;20182;-80
2023/03/06 02:14:19;;;;;;;14.10;8.57;;;;;;;1.01;73.07;94607.66;4999299;28;20285;-81
2023/03/06 02:16:44;;;;;;;13.47;8.90;;;;;;;1.00;72.73;94603.47;5027314;28;20249;-81
2023/03/06 02:19:42;;;;;;;11.90;8.57;;;;;;;0.98;72.76;94608.72;5011977;28;20318;-81
2023/03/06 02:22:07;;;;;;;12.80;8.87;;;;;;;0.96;73.22;94610.53;5009899;28;20195;-81
2023/03/06 02:24:46;;;;;;;14.90;8.77;;;;;;;0.94;73.49;94603.91;5003790;28;20237;-81
2023/03/06 02:27:13;;;;;;;14.03;9.40;;;;;;;0.91;73.45;94606.72;5028737;28;20187;-81
2023/03/06 02:29:38;;;;;;;13.93;9.10;;;;;;;0.88;73.58;94605.16;5009371;28;20201;-81
2023/03/06 02:32:04;;;;;;;13.13;8.47;;;;;;;0.84;73.31;94601.22;5028248;28;20191;-81
2023/03/06 02:34:35;;;;;;;14.00;8.53;;;;;;;0.91;73.28;94606.72;5016677;28;20232;-81
2023/03/06 02:37:10;;;;;;;15.27;8.90;;;;;;;0.88;73.38;94601.81;5023239;28;20602;-81
2023/03/06 02:39:43;;;;;;;13.03;8.33;;;;;;;0.85;73.43;94603.66;5033010;28;20633;-80
2023/03/06 02:42:08;;;;;;;11.87;8.50;;;;;;;0.84;73.04;94598.66;5028401;28;20244;-81
2023/03/06 02:44:37;;;;;;;12.17;8.47;;;;;;;0.85;73.63;94592.63;5008613;28;20206;-81
2023/03/06 02:47:03;;;;;;;13.50;9.33;;;;;;;0.82;73.15;94595.41;5031227;28;20198;-80
2023/03/06 02:49:28;;;;;;;12.50;8.13;;;;;;;0.82;73.51;94592.84;4996602;28;20704;-81
2023/03/06 02:51:53;;;;;;;12.37;8.03;;;;;;;0.76;73.46;94594.09;4999547;28;20209;-80
2023/03/06 02:54:19;;;;;;;12.33;7.77;;;;;;;0.74;73.42;94584.94;5021468;28;20206;-80
2023/03/06 02:56:44;;;;;;;13.60;8.03;;;;;;;0.74;74.03;94588.31;5028077;28;20713;-81
2023/03/06 02:59:10;;;;;;;13.70;8.10;;;;;;;0.77;73.73;94588.06;5013343;28;20190;-80
2023/03/06 03:01:35;;;;;;;13.70;8.60;;;;;;;0.67;74.33;94576.06;5025993;28;20286;-80
2023/03/06 03:04:00;;;;;;;15.47;8.67;;;;;;;0.70;74.15;94580.97;5020369;28;20191;-80
2023/03/06 03:06:26;;;;;;;16.23;9.30;;;;;;;0.65;74.01;94591.53;5017070;28;20199;-79
2023/03/06 03:08:51;;;;;;;14.40;9.03;;;;;;;0.70;74.66;94578.41;5028208;28;20187;-79
2023/03/06 03:11:16;;;;;;;14.97;8.70;;;;;;;0.69;75.04;94575.03;5006346;28;20598;-80
2023/03/06 03:13:41;;;;;;;15.30;8.73;;;;;;;0.71;74.78;94573.19;5011098;28;20202;-80
2023/03/06 03:16:12;;;;;;;12.93;8.57;;;;;;;0.76;74.71;94573.66;5028751;28;20206;-79
2023/03/06 03:18:37;;;;;;;13.30;8.63;;;;;;;0.65;75.44;94565.97;5012322;28;20195;-79
2023/03/06 03:21:09;;;;;;;14.20;8.73;;;;;;;0.65;75.25;94565.97;5023763;28;20210;-79
2023/03/06 03:23:35;;;;;;;14.57;8.37;;;;;;;0.67;75.03;94564.13;5019143;28;20604;-81
2023/03/06 03:26:11;;;;;;;15.87;9.13;;;;;;;0.65;75.13;94563.41;5015471;28;20207;-81
2023/03/06 03:28:36;;;;;;;16.63;8.97;;;;;;;0.59;75.34;94565.59;5005717;28;20182;-81
2023/03/06 03:31:06;;;;;;;16.30;9.17;;;;;;;0.63;75.58;94572.13;5028119;28;20244;-81
2023/03/06 03:33:32;;;;;;;16.60;10.30;;;;;;;0.55;76.05;94563.28;5029945;28;20182;-81
2023/03/06 03:35:58;;;;;;;16.60;9.73;;;;;;;0.61;75.78;94559.44;5006781;28;20206;-82
2023/03/06 03:38:23;;;;;;;16.60;10.10;;;;;;;0.58;75.41;94557.13;5018508;28;20540;-81
2023/03/06 03:40:48;;;;;;;14.23;9.07;;;;;;;0.61;75.74;94562.00;4996860;28;20202;-79
2023/03/06 03:43:14;;;;;;;17.53;9.60;;;;;;;0.65;75.70;94552.38;5019618;28;20668;-79
2023/03/06 03:45:39;;;;;;;18.37;9.57;;;;;;;0.68;75.49;94555.53;5019757;28;20203;-79
2023/03/06 03:48:05;;;;;;;18.27;10.40;;;;;;;0.61;76.18;94556.06;5020713;28;20313;-80
2023/03/06 03:50:31;;;;;;;17.97;9.93;;;;;;;0.62;76.43;94561.09;5029085;28;20610;-79
2023/03/06 03:52:57;;;;;;;17.43;10.30;;;;;;;0.55;76.53;94549.69;5015818;28;20726;-80
2023/03/06 03:55:22;;;;;;;17.93;9.70;;;;;;;0.63;76.12;94554.25;5006515;28;20214;-80
2023/03/06 03:57:47;;;;;;;18.97;10.13;;;;;;;0.70;75.95;94547.72;5013069;28;20198;-80
2023/03/06 04:00:15;;;;;;;21.33;10.40;;;;;;;0.64;76.39;94546.47;5010006;28;20226;-80
2023/03/06 04:02:43;;;;;;;19.33;11.20;;;;;;;0.66;76.42;94546.34;5004513;28;20182;-80
2023/03/06 04:05:13;;;;;;;20.37;11.43;;;;;;;0.60;76.50;94542.50;5014927;28;20207;-80
2023/03/06 04:07:39;;;;;;;19.30;11.40;;;;;;;0.68;76.19;94547.03;5008080;28;20214;-80
2023/03/06 04:10:06;;;;;;;20.30;11.43;;;;;;;0.72;75.83;94539.06;5019805;28;20217;-80
2023/03/06 04:12:31;;;;;;;21.27;11.10;;;;;;;0.64;76.13;94528.56;5018697;28;20637;-80
2023/03/06 04:14:56;;;;;;;19.60;11.37;;;;;;;0.65;75.71;94525.09;4996023;28;20246;-80
2023/03/06 04:17:21;;;;;;;19.00;11.37;;;;;;;0.72;75.80;94523.72;5011654;28;20253;-79
2023/03/06 04:19:47;;;;;;;18.57;10.90;;;;;;;0.62;75.84;94524.47;5029836;28;20191;-80
2023/03/06 04:22:12;;;;;;;17.90;10.30;;;;;;;0.65;76.01;94519.16;5027528;28;20653;-79
2023/03/06 04:24:37;;;;;;;21.60;10.83;;;;;;;0.68;75.70;94519.75;5028650;28;20650;-79
2023/03/06 04:27:03;;;;;;;17.47;10.80;;;;;;;0.64;76.03;94517.53;5021926;28;20198;-79
2023/03/06 04:29:28;;;;;;;16.93;10.77;;;;;;;0.71;75.67;94516.97;5016470;28;20179;-79
2023/03/06 04:31:53;;;;;;;20.60;11.23;;;;;;;0.72;75.66;94522.91;5016434;28;20179;-79
2023/03/06 04:34:19;;;;;;;17.40;10.10;;;;;;;0.63;75.42;94514.19;5012625;28;20207;-80
2023/03/06 04:36:44;;;;;;;15.67;10.90;;;;;;;0.68;75.47;94509.53;5005636;28;20260;-79
2023/03/06 04:39:11;;;;;;;18.33;10.00;;;;;;;0.67;75.50;94507.91;5008814;28;20194;-79
2023/03/06 04:41:36;;;;;;;17.83;9.73;;;;;;;0.71;75.18;94511.88;5030999;28;20195;-79
2023/03/06 04:44:02;;;;;;;17.63;10.27;;;;;;;0.72;75.08;94513.50;5026034;28;20272;-79
2023/03/06 04:46:27;;;;;;;16.93;10.43;;;;;;;0.76;75.06;94508.97;5019173;28;20235;-79
2023/03/06 04:48:53;;;;;;;21.07;10.93;;;;;;;0.67;74.79;94507.91;5003147;28;20708;-80
2023/03/06 04:51:19;;;;;;;16.20;9.40;;;;;;;0.59;74.46;94504.28;5028427;28;20188;-80
2023/03/06 04:53:44;;;;;;;17.07;9.57;;;;;;;0.71;74.16;94503.41;5024372;28;20202;-80
2023/03/06 04:56:09;;;;;;;16.33;9.67;;;;;;;0.77;74.41;94502.91;4999919;28;20238;-80
2023/03/06 04:58:35;;;;;;;16.83;10.23;;;;;;;0.74;74.15;94503.16;5014640;28;20620;-80
2023/03/06 05:01:00;;;;;;;14.77;9.80;;;;;;;0.80;74.17;94507.81;5019528;28;20245;-79
2023/03/06 05:03:26;;;;;;;17.33;10.23;;;;;;;0.72;74.32;94507.56;5025604;28;20654;-80
2023/03/06 05:05:51;;;;;;;15.30;9.27;;;;;;;0.72;74.33;94505.84;5016580;28;20206;-80
2023/03/06 05:08:17;;;;;;;16.37;9.63;;;;;;;0.74;74.29;94509.09;5028307;28;20253;-80
2023/03/06 05:10:43;;;;;;;15.27;9.27;;;;;;;0.75;74.25;94503.03;5006463;28;20217;-79
2023/03/06 05:13:08;;;;;;;15.60;9.70;;;;;;;0.77;74.24;94503.72;5000882;28;20565;-80
2023/03/06 05:15:34;;;;;;;16.23;10.20;;;;;;;0.76;74.04;94509.78;5012676;28;20214;-80
2023/03/06 05:17:59;;;;;;;15.87;9.87;;;;;;;0.79;73.85;94501.88;5002558;28;20224;-80
2023/03/06 05:20:24;;;;;;;17.33;10.17;;;;;;;0.74;74.33;94501.41;5008365;28;20271;-80
2023/03/06 05:22:50;;;;;;;17.03;10.20;;;;;;;0.75;74.35;94500.47;5000768;28;20206;-80
2023/03/06 05:25:15;;;;;;;15.43;10.83;;;;;;;0.76;74.55;94502.09;4999155;28;20245;-79
2023/03/06 05:27:41;;;;;;;17.30;10.23;;;;;;;0.80;74.19;94495.03;5010536;28;20353;-80
2023/03/06 05:30:10;;;;;;;19.07;10.20;;;;;;;0.73;74.69;94497.25;5026231;28;20236;-79
2023/03/06 05:32:35;;;;;;;18.90;10.80;;;;;;;0.75;74.70;94492.81;5014155;28;20289;-80
2023/03/06 05:35:01;;;;;;;16.30;10.47;;;;;;;0.74;74.63;94487.81;5017098;28;20776;-80
2023/03/06 05:37:26;;;;;;;17.90;9.50;;;;;;;0.72;75.08;94490.50;5002218;28;20215;-80
2023/03/06 05:39:51;;;;;;;15.30;9.93;;;;;;;0.79;75.12;94483.97;4997306;28;20222;-79
2023/03/06 05:42:17;;;;;;;17.33;10.67;;;;;;;0.76;75.35;94489.34;4996815;28;20198;-80
2023/03/06 05:44:42;;;;;;;14.10;9.17;;;;;;;0.73;75.30;94484.47;5019857;28;20278;-79
2023/03/06 05:47:08;;;;;;;16.53;10.03;;;;;;;0.64;75.42;94476.66;5026108;28;20708;-79
2023/03/06 05:49:34;;;;;;;22.37;11.53;;;;;;;0.74;75.68;94477.59;5046141;28;20289;-79
2023/03/06 05:52:02;;;;;;;16.80;10.37;;;;;;;0.68;75.67;94475.50;5006674;28;20756;-79
2023/03/06 05:54:28;;;;;;;16.17;9.70;;;;;;;0.66;75.85;94479.91;5007990;28;20213;-80
2023/03/06 05:56:53;;;;;;;17.93;9.43;;;;;;;0.65;75.64;94483.41;5012335;28;20257;-79
2023/03/06 05:59:18;;;;;;;18.47;10.30;;;;;;;0.79;75.40;94483.97;4997948;28;20216;-79
2023/03/06 06:01:44;;;;;;;17.33;9.70;;;;;;;0.75;75.40;94482.59;5001726;28;20241;-79
2023/03/06 06:04:10;;;;;;;16.57;9.60;;;;;;;0.79;75.56;94486.53;5016444;28;20192;-79
2023/03/06 06:06:35;;;;;;;16.73;8.93;;;;;;;0.69;75.38;94487.34;5011757;28;20702;-79
2023/03/06 06:09:01;;;;;;;15.80;9.30;;;;;;;0.76;75.17;94491.06;5024397;28;20220;-79
2023/03/06 06:11:26;;;;;;;15.97;9.27;;;;;;;0.76;75.25;94493.63;5018773;28;20197;-80
2023/03/06 06:13:51;;;;;;;19.27;10.10;;;;;;;0.78;75.43;94489.22;4997170;28;20191;-79
2023/03/06 06:16:18;;;;;;;19.13;10.30;;;;;;;0.85;75.28;94491.19;5013557;28;20222;-80
2023/03/06 06:18:43;;;;;;;16.57;9.43;;;;;;;0.90;75.02;94492.63;5019415;28;20249;-80
2023/03/06 06:21:10;;;;;;;17.87;10.17;;;;;;;0.91;75.27;94494.25;5024779;28;20195;-80
2023/03/06 06:23:35;;;;;;;16.80;9.17;;;;;;;0.93;75.58;94492.38;5030348;28;20225;-80
2023/03/06 06:26:03;;;;;;;17.93;10.10;;;;;;;0.69;76.42;94488.16;5023550;28;20804;-79
2023/03/06 06:28:29;;;;;;;15.97;9.37;;;;;;;0.81;75.84;94489.00;5027798;28;20650;-81
2023/03/06 06:30:54;;;;;;;15.37;9.33;;;;;;;0.87;75.80;94495.38;5013369;28;20230;-81
2023/03/06 06:33:19;;;;;;;17.63;10.03;;;;;;;0.94;76.04;94488.88;5019909;28;20189;-80
2023/03/06 06:35:45;;;;;;;21.17;11.27;;;;;;;0.92;75.99;94494.13;5019091;28;20884;-80
2023/03/06 06:38:10;;;;;;;16.70;10.37;;;;;;;0.98;76.06;94503.91;5019052;28;20278;-81
2023/03/06 06:40:35;;;;;;;16.40;11.03;;;;;;;1.03;75.91;94500.97;5010538;28;20199;-80
2023/03/06 06:43:01;;;;;;;15.87;9.60;;;;;;;1.07;75.63;94499.81;4998750;28;20198;-80
2023/03/06 06:45:26;;;;;;;16.80;11.37;;;;;;;1.05;75.25;94501.66;5001312;28;20713;-80
2023/03/06 06:47:51;;;;;;;19.10;10.07;;;;;;;1.00;76.01;94496.91;5019831;28;20233;-80
2023/03/06 06:50:17;;;;;;;16.93;9.70;;;;;;;1.07;75.65;94499.81;5005173;28;20195;-81
2023/03/06 06:52:42;;;;;;;16.63;10.47;;;;;;;1.07;75.60;94497.28;5011833;28;20186;-81
2023/03/06 06:55:08;;;;;;;17.13;9.83;;;;;;;1.02;75.98;94501.91;5016546;28;20293;-81
2023/03/06 06:57:33;;;;;;;16.27;9.73;;;;;;;1.15;75.87;94502.63;5030218;28;21000;-81
2023/03/06 06:59:58;;;;;;;16.03;10.70;;;;;;;1.18;76.04;94504.13;4996698;28;20187;-80
2023/03/06 07:02:24;;;;;;;22.67;12.30;;;;;;;1.12;75.61;94507.94;5001423;28;20198;-81
2023/03/06 07:04:49;;;;;;;22.67;12.60;;;;;;;1.17;75.90;94505.88;5017340;28;20195;-80
2023/03/06 07:07:14;;;;;;;17.17;9.53;;;;;;;1.06;75.61;94508.41;5001324;28;20179;-80
2023/03/06 07:09:40;;;;;;;20.83;10.37;;;;;;;1.19;75.11;94514.22;5008943;28;20187;-80
2023/03/06 07:12:06;;;;;;;20.13;11.63;;;;;;;1.22;75.83;94523.41;5001689;28;20190;-80
2023/03/06 07:14:34;;;;;;;19.23;11.83;;;;;;;1.48;74.94;94523.97;5025152;28;20191;-80
2023/03/06 07:17:00;;;;;;;20.50;11.63;;;;;;;1.42;75.57;94520.97;4999845;28;20224;-80
2023/03/06 07:19:25;;;;;;;18.20;11.03;;;;;;;1.36;75.62;94526.56;5002613;28;20566;-80
2023/03/06 07:21:50;;;;;;;21.60;11.57;;;;;;;1.45;75.42;94521.66;4996301;28;20190;-80
2023/03/06 07:24:16;;;;;;;20.20;12.07;;;;;;;1.52;75.54;94523.66;4995758;28;20249;-80
2023/03/06 07:26:47;;;;;;;19.17;10.63;;;;;;;1.61;74.83;94528.06;5001491;28;20206;-79
2023/03/06 07:29:13;;;;;;;19.03;12.47;;;;;;;1.68;74.94;94530.97;5023324;28;20632;-80
2023/03/06 07:31:39;;;;;;;19.73;12.57;;;;;;;1.55;75.29;94527.69;5007236;28;20218;-81
2023/03/06 07:34:04;;;;;;;17.80;11.57;;;;;;;1.60;75.07;94529.00;5019352;28;20688;-81
2023/03/06 07:36:30;;;;;;;17.80;11.30;;;;;;;1.42;75.94;94532.97;5015549;28;20290;-81
2023/03/06 07:38:55;;;;;;;17.53;10.63;;;;;;;1.44;75.90;94527.72;4996583;28;20788;-80
2023/03/06 07:41:20;;;;;;;16.97;10.17;;;;;;;1.44;76.51;94531.09;5000842;28;20839;-80
2023/03/06 07:43:45;;;;;;;17.33;11.37;;;;;;;1.63;76.18;94526.19;5000152;28;20285;-81
2023/03/06 07:46:12;;;;;;;17.37;11.03;;;;;;;1.57;76.63;94531.75;5001462;28;20206;-80
2023/03/06 07:48:38;;;;;;;17.83;11.43;;;;;;;1.55;76.35;94527.69;5011663;28;20187;-80
2023/03/06 07:51:05;;;;;;;20.67;12.50;;;;;;;1.38;77.56;94532.38;4998330;28;20658;-80
2023/03/06 07:53:31;;;;;;;18.70;11.80;;;;;;;1.52;77.49;94525.41;5019125;28;20554;-80
2023/03/06 07:55:56;;;;;;;23.17;11.97;;;;;;;1.62;76.86;94531.44;5001927;28;20206;-81
2023/03/06 07:58:22;;;;;;;20.27;12.47;;;;;;;1.68;76.80;94528.41;5033126;28;20274;-80
2023/03/06 08:00:48;;;;;;;33.40;12.60;;;;;;;1.50;77.55;94537.47;5026184;28;20179;-81
2023/03/06 08:03:14;;;;;;;17.27;10.77;;;;;;;1.61;77.37;94534.91;5018779;28;20183;-80
2023/03/06 08:05:39;;;;;;;20.10;10.50;;;;;;;1.65;76.99;94543.97;5014609;28;20237;-80
2023/03/06 08:08:04;;;;;;;23.07;11.57;;;;;;;1.77;76.89;94531.97;5023275;28;20189;-80
2023/03/06 08:10:30;;;;;;;18.23;11.37;;;;;;;1.68;77.56;94538.63;5019969;28;20265;-81
2023/03/06 08:12:55;;;;;;;17.63;10.97;;;;;;;1.76;78.01;94543.13;5001780;28;20248;-81
2023/03/06 08:15:21;;;;;;;19.03;12.33;;;;;;;1.69;78.05;94537.69;5032880;28;20215;-81
2023/03/06 08:17:46;;;;;;;22.10;12.63;;;;;;;1.57;78.96;94538.63;5010609;28;20237;-82
2023/03/06 08:20:13;;;;;;;21.07;11.70;;;;;;;1.45;79.62;94540.41;5020875;28;20667;-81
2023/03/06 08:22:38;;;;;;;22.83;12.83;;;;;;;1.67;79.69;94542.09;5019595;28;20225;-81
2023/03/06 08:25:04;;;;;;;22.90;13.10;;;;;;;1.76;78.96;94543.13;5000886;28;20240;-81
2023/03/06 08:27:31;;;;;;;26.80;12.33;;;;;;;1.85;79.14;94544.97;5029232;28;20608;-81
2023/03/06 08:29:57;;;;;;;23.83;14.47;;;;;;;1.85;79.00;94548.34;5016537;28;20197;-82
2023/03/06 08:32:22;;;;;;;23.27;13.00;;;;;;;1.67;78.89;94542.91;5027047;28;20190;-81
2023/03/06 08:34:48;;;;;;;18.17;12.47;;;;;;;1.79;78.95;94560.84;5023024;28;20198;-81
2023/03/06 08:37:14;;;;;;;19.70;12.97;;;;;;;1.62;79.50;94557.00;5021825;28;20306;-81
2023/03/06 08:39:39;;;;;;;18.03;11.70;;;;;;;1.53;79.74;94562.84;5014619;28;20609;-80
2023/03/06 08:42:04;;;;;;;18.70;11.17;;;;;;;1.52;80.16;94551.78;5026986;28;20233;-83
2023/03/06 08:44:30;;;;;;;19.10;11.87;;;;;;;1.50;80.69;94557.94;5004851;28;20274;-81
2023/03/06 08:46:55;;;;;;;21.00;12.83;;;;;;;1.37;81.39;94560.63;5016538;28;20257;-80
2023/03/06 08:49:20;;;;;;;19.23;11.10;;;;;;;1.58;81.14;94556.41;5031301;28;20240;-80
2023/03/06 08:51:46;;;;;;;20.47;12.13;;;;;;;1.57;80.46;94559.91;5003518;28;20214;-80
2023/03/06 08:54:12;;;;;;;21.43;12.03;;;;;;;1.54;81.04;94560.16;5005335;28;20913;-80
2023/03/06 08:56:37;;;;;;;20.13;12.03;;;;;;;1.72;80.23;94562.25;5015174;28;20206;-80
2023/03/06 08:59:04;;;;;;;18.57;12.47;;;;;;;1.73;80.14;94556.19;5021989;28;20175;-80
2023/03/06 09:01:32;;;;;;;20.77;12.07;;;;;;;1.87;79.75;94559.31;5021349;28;20213;-80
2023/03/06 09:03:59;;;;;;;31.20;13.13;;;;;;;1.81;79.97;94559.78;5029599;28;20189;-80
2023/03/06 09:06:26;;;;;;;19.77;12.63;;;;;;;1.91;80.15;94562.44;5012936;28;20233;-80
2023/03/06 09:08:51;;;;;;;18.87;12.13;;;;;;;1.86;79.83;94556.88;5012809;28;20191;-80
2023/03/06 09:11:17;;;;;;;19.73;12.43;;;;;;;1.83;79.79;94565.59;5018579;28;20186;-81
2023/03/06 09:13:42;;;;;;;17.83;11.37;;;;;;;1.58;80.75;94569.22;5031291;28;20186;-80
2023/03/06 09:16:09;;;;;;;21.37;12.47;;;;;;;1.80;80.56;94558.16;5022381;28;20207;-80
2023/03/06 09:18:35;;;;;;;19.90;11.43;;;;;;;1.81;80.30;94564.09;5017904;28;20201;-80
2023/03/06 09:21:00;;;;;;;21.97;12.83;;;;;;;1.86;80.38;94562.81;5028237;28;20658;-78
2023/03/06 09:23:25;;;;;;;18.10;11.43;;;;;;;2.05;79.51;94562.19;4998979;28;20283;-80
2023/03/06 09:25:52;;;;;;;16.77;11.47;;;;;;;2.07;78.18;94564.63;5003408;28;20211;-80
2023/03/06 09:28:17;;;;;;;18.20;12.77;;;;;;;2.09;78.07;94563.56;5026501;28;20278;-80
2023/03/06 09:30:43;;;;;;;19.00;11.87;;;;;;;2.22;77.93;94573.69;5001883;28;20278;-81
2023/03/06 09:33:08;;;;;;;19.73;13.50;;;;;;;2.30;78.57;94565.34;5000782;28;20562;-82
2023/03/06 09:35:33;;;;;;;20.03;11.17;;;;;;;2.27;78.16;94571.53;5028907;28;20252;-81
2023/03/06 09:37:59;;;;;;;18.87;12.20;;;;;;;2.24;77.83;94574.34;5017297;28;20851;-81
2023/03/06 09:40:51;;;;;;;18.93;12.17;;;;;;;2.59;77.18;94571.56;5014268;28;20263;-81
2023/03/06 09:43:28;;;;;;;18.13;12.93;;;;;;;2.66;77.22;94572.69;5019552;28;20197;-81
2023/03/06 09:45:54;;;;;;;20.93;12.33;;;;;;;2.54;77.39;94571.91;5006731;28;20203;-81
2023/03/06 09:48:21;;;;;;;19.17;12.40;;;;;;;2.49;77.52;94573.22;5002036;28;20194;-80
2023/03/06 09:50:54;;;;;;;17.03;11.87;;;;;;;2.70;76.50;94570.69;5005315;28;20654;-81
2023/03/06 09:53:28;;;;;;;23.83;12.70;;;;;;;2.66;76.76;94569.31;5025208;28;20191;-80
2023/03/06 09:56:09;;;;;;;16.43;11.13;;;;;;;2.33;75.94;94560.81;5020495;28;20720;-80
2023/03/06 09:58:43;;;;;;;17.20;11.33;;;;;;;2.51;76.05;94567.03;5014471;28;20182;-80
2023/03/06 10:01:19;;;;;;;17.20;11.33;;;;;;;2.50;75.68;94565.41;5022144;28;20186;-80
2023/03/06 10:04:17;;;;;;;18.00;11.93;;;;;;;2.80;75.13;94574.13;5021991;28;20190;-81
2023/03/06 10:06:55;;;;;;;17.07;11.23;;;;;;;2.83;74.63;94576.47;5029097;28;20199;-80
2023/03/06 10:09:29;;;;;;;17.60;12.60;;;;;;;2.80;74.67;94571.56;5039885;28;20343;-79
2023/03/06 10:12:10;;;;;;;19.67;12.37;;;;;;;3.03;73.97;94572.28;5017896;28;20186;-80
2023/03/06 10:15:04;;;;;;;19.07;12.10;;;;;;;3.26;74.07;94573.75;5017881;28;20559;-80
2023/03/06 10:17:35;;;;;;;23.57;11.47;;;;;;;3.05;74.11;94571.19;5010387;28;20594;-80
2023/03/06 10:20:05;;;;;;;17.73;11.73;;;;;;;2.79;73.82;94569.94;5002440;28;20193;-80
2023/03/06 10:22:42;;;;;;;17.80;11.07;;;;;;;3.15;73.68;94573.81;5027423;28;20253;-81
2023/03/06 10:25:30;;;;;;;16.03;10.97;;;;;;;3.06;72.43;94575.38;5025499;28;20230;-80
2023/03/06 10:27:56;;;;;;;20.53;11.10;;;;;;;3.08;71.69;94570.94;5026324;28;20278;-81
2023/03/06 10:30:23;;;;;;;15.87;10.87;;;;;;;3.03;71.49;94577.41;5005032;28;20206;-80
2023/03/06 10:32:58;;;;;;;16.37;10.13;;;;;;;3.33;70.89;94574.06;5023473;28;20267;-80
2023/03/06 10:35:27;;;;;;;15.17;10.50;;;;;;;3.30;70.58;94569.19;5017309;28;20220;-81
2023/03/06 10:38:05;;;;;;;14.03;10.57;;;;;;;3.37;71.77;94570.31;5014686;28;20345;-81
2023/03/06 10:40:42;;;;;;;15.93;10.00;;;;;;;3.61;71.33;94570.78;5018559;28;20187;-82
2023/03/06 10:43:09;;;;;;;15.47;9.93;;;;;;;3.60;70.53;94569.16;5038626;28;20195;-81
2023/03/06 10:45:45;;;;;;;14.00;9.60;;;;;;;3.14;71.74;94569.63;5029737;28;20206;-81
2023/03/06 10:48:16;;;;;;;14.20;9.43;;;;;;;3.58;71.32;94565.94;5033363;28;20184;-81
2023/03/06 10:50:41;;;;;;;15.87;10.20;;;;;;;4.11;69.23;94563.13;5019266;28;20579;-81
2023/03/06 10:53:18;;;;;;;18.43;10.53;;;;;;;4.11;68.06;94563.13;5003377;28;20182;-81
2023/03/06 10:56:08;;;;;;;16.87;9.77;;;;;;;3.77;68.36;94557.47;5014398;28;20249;-81
2023/03/06 10:58:33;;;;;;;15.20;9.87;;;;;;;3.72;67.38;94557.06;5025201;28;20188;-80
2023/03/06 11:01:17;;;;;;;14.07;9.33;;;;;;;3.85;67.59;94555.06;5022003;28;20878;-81
2023/03/06 11:03:42;;;;;;;12.77;9.00;;;;;;;3.63;68.22;94561.22;5011876;28;20551;-81
2023/03/06 11:06:09;;;;;;;15.83;11.67;;;;;;;4.14;65.63;94549.19;5025086;28;20213;-80
2023/03/06 11:08:35;;;;;;;16.40;9.13;;;;;;;4.29;64.15;94562.47;5017903;28;20216;-81
2023/03/06 11:11:03;;;;;;;18.00;11.33;;;;;;;4.53;64.83;94565.47;5019230;28;20212;-78
2023/03/06 11:13:31;;;;;;;17.20;10.67;;;;;;;4.85;63.76;94557.47;5018679;28;20198;-80
2023/03/06 11:15:58;;;;;;;14.10;9.23;;;;;;;5.06;63.04;94563.28;5015882;28;20216;-80
2023/03/06 11:18:41;;;;;;;15.47;9.60;;;;;;;5.00;63.18;94561.25;5018417;28;20300;-80
2023/03/06 11:21:28;;;;;;;12.83;8.53;;;;;;;5.27;61.24;94560.50;5008378;28;20196;-78
2023/03/06 11:23:54;;;;;;;13.40;9.57;;;;;;;5.15;60.58;94558.25;5012295;28;20215;-79
2023/03/06 11:26:34;;;;;;;19.00;8.90;;;;;;;5.53;60.46;94560.72;5002288;28;20210;-80
2023/03/06 11:29:18;;;;;;;12.73;9.07;;;;;;;5.43;60.18;94559.13;5025938;28;20203;-80
2023/03/06 11:32:08;;;;;;;12.90;9.23;;;;;;;5.67;60.01;94547.38;5033581;28;20182;-80